アラート の空港の天気 - METARとTAF

Alert Airport ( CYLT / YLT ) - カナダ ヌナブト準州アラート
飛行場実況気象(Metar)
観測時間09/22 16:00 EDT (09/22 20:00 UTC)
風向・風速南 3m/s
視程10km以上
天気現象
少しの雲 雲底高度 240m
少しの雲 雲底高度 6710m
気温-7℃
湿度68%
気圧1014.3hPa
METARCYLT 222000Z 17005KT 150V220 15SM FEW008 FEW220 M07/M12 A2994 RMK SF1CI1 LAST OBS/NEXT 231200 UTC SF TR CI TR SLP143
過去の天気等 Google飛行場航空写真 Wunderground天気予報

過去48時間のMETAR

飛行場予報(TAF)
発表時間: 9/22 13:30 EDT (9/22 17:30 UTC)
予報対象時間: 22日14時 EDT ~ 23日2時 EDT
風向・風速南南西 8m/s
視程10km以上
少しの雲 雲底高度 240m
少しの雲 雲底高度 6710m
22日20時 EDT ~ 22日22時 EDT に徐々に
風向・風速南西 8m/s 瞬間風速 13m/s
TAF CYLT 221730Z 2218/2306 21015KT P6SM FEW008 FEW220
BECMG 2300/2302 22015G25KT RMK NXT FCST BY 230000Z